CheckWX is a tool to help pilots better visualize weather data.  It is not intended as a substitute for an official pre-flight weather briefing.

22:04:20 UTC

KDFW TAF
Dallas-Fort Worth International Airport
Dallas-Fort Worth, Texas, USA
KDFW 202102Z 2021/2124 33008KT P6SM SCT050 BKN120 FM210200 26005KT P6SM FEW250 FM211600 30010KT P6SM FEW250

Mar-20@
21:00 UTC

Mar-20 @ 21:00 UTC

Mar-21@
02:00 UTC

Mar-21 @ 02:00 UTC

KDFW 202102Z 2021/2124 33008KT P6SM SCT050 BKN120
Wind
  • 330° at 8 KTS
Cloud Levels
  • Scattered at 5,000' AGL
  • Broken at 12,000' AGL

Mar-21@
02:00 UTC

Mar-21 @ 02:00 UTC

Mar-21@
16:00 UTC

Mar-21 @ 16:00 UTC

FM210200 26005KT P6SM FEW250

From

From Standard forecast or significant change

Wind
  • 260° at 5 KTS
Cloud Levels
  • Few at 25,000' AGL

Mar-21@
16:00 UTC

Mar-21 @ 16:00 UTC

Mar-22@
00:00 UTC

Mar-22 @ 00:00 UTC

FM211600 30010KT P6SM FEW250

From

From Standard forecast or significant change

Wind
  • 300° at 10 KTS
Cloud Levels
  • Few at 25,000' AGL